Time;durP1;ratioP1;P1;durP2;ratioP2;P2;SDS_P1;SDS_P2;PMS_P1;PMS_P2;Temp;Humidity;BMP_temperature;BMP_pressure;BME280_temperature;BME280_humidity;BME280_pressure;Samples;Min_cycle;Max_cycle;Signal;HPM_P1;HPM_P2
2022/09/21 00:00:26;;;;;;;3.57;2.77;;;10.30;99.90;;;;;;4996779;28;20208;-73
2022/09/21 00:02:56;;;;;;;5.20;2.53;;;10.30;99.90;;;;;;5001003;28;20240;-73
2022/09/21 00:05:21;;;;;;;4.13;2.70;;;10.30;99.90;;;;;;4990955;28;20290;-74
2022/09/21 00:07:47;;;;;;;4.00;2.70;;;10.30;99.90;;;;;;4998303;28;20269;-73
2022/09/21 00:10:12;;;;;;;4.60;2.20;;;10.20;99.90;;;;;;4990171;28;20569;-73
2022/09/21 00:12:38;;;;;;;5.63;2.70;;;10.20;99.90;;;;;;4994664;28;20621;-73
2022/09/21 00:15:08;;;;;;;4.13;2.70;;;10.20;99.90;;;;;;4989282;28;20259;-74
2022/09/21 00:17:35;;;;;;;4.97;2.63;;;10.20;99.90;;;;;;4997432;28;20263;-74
2022/09/21 00:20:02;;;;;;;3.80;2.90;;;10.20;99.90;;;;;;4999137;28;20181;-74
2022/09/21 00:22:28;;;;;;;2.57;2.03;;;10.20;99.90;;;;;;4994437;28;20221;-74
2022/09/21 00:24:54;;;;;;;4.27;3.20;;;10.20;99.90;;;;;;4982618;28;20213;-73
2022/09/21 00:27:20;;;;;;;3.90;2.50;;;10.20;99.90;;;;;;5000991;28;20201;-74
2022/09/21 00:29:47;;;;;;;3.40;2.17;;;10.20;99.90;;;;;;4993909;28;20235;-73
2022/09/21 00:32:14;;;;;;;3.93;2.77;;;10.10;99.90;;;;;;4976481;28;20229;-74
2022/09/21 00:34:40;;;;;;;2.87;2.23;;;10.10;99.90;;;;;;5001530;28;20223;-73
2022/09/21 00:37:08;;;;;;;2.53;2.33;;;10.10;99.90;;;;;;4988340;28;20213;-74
2022/09/21 00:39:33;;;;;;;8.33;2.73;;;10.10;99.90;;;;;;4985033;28;20205;-74
2022/09/21 00:41:59;;;;;;;4.83;2.50;;;10.10;99.90;;;;;;4997205;28;20663;-74
2022/09/21 00:44:29;;;;;;;5.10;2.90;;;10.10;99.90;;;;;;5003384;28;20200;-73
2022/09/21 00:47:00;;;;;;;4.67;2.33;;;10.10;99.90;;;;;;4988685;28;20241;-74
2022/09/21 00:49:26;;;;;;;4.80;2.50;;;10.10;99.90;;;;;;4996850;28;20204;-75
2022/09/21 00:51:52;;;;;;;3.37;2.50;;;10.10;99.90;;;;;;4981241;28;20556;-74
2022/09/21 00:54:28;;;;;;;3.97;2.90;;;10.10;99.90;;;;;;4996954;28;20206;-73
2022/09/21 00:56:58;;;;;;;3.47;2.80;;;10.00;99.90;;;;;;4992182;28;20706;-74
2022/09/21 00:59:24;;;;;;;6.57;2.93;;;10.10;99.90;;;;;;4998195;28;20251;-73
2022/09/21 01:01:50;;;;;;;4.53;2.43;;;10.10;99.90;;;;;;4999664;28;20197;-74
2022/09/21 01:04:17;;;;;;;4.13;2.70;;;10.10;99.90;;;;;;4994436;28;20175;-73
2022/09/21 01:06:43;;;;;;;3.70;2.53;;;10.00;99.90;;;;;;4981293;28;20244;-74
2022/09/21 01:09:09;;;;;;;2.93;2.40;;;10.00;99.90;;;;;;4986672;28;20213;-72
2022/09/21 01:11:38;;;;;;;3.37;2.63;;;10.00;99.90;;;;;;4996296;28;20335;-75
2022/09/21 01:14:33;;;;;;;3.77;2.73;;;10.00;99.90;;;;;;4987066;28;20272;-73
2022/09/21 01:17:31;;;;;;;3.37;2.53;;;10.00;99.90;;;;;;4993061;28;20179;-73
2022/09/21 01:20:25;;;;;;;3.33;2.83;;;10.00;99.90;;;;;;4944087;28;20217;-74
2022/09/21 01:23:09;;;;;;;3.03;2.23;;;10.00;99.90;;;;;;4987755;28;20311;-73
2022/09/21 01:25:41;;;;;;;5.83;2.70;;;10.00;99.90;;;;;;4995845;28;20687;-72
2022/09/21 01:28:12;;;;;;;4.00;2.47;;;9.90;99.90;;;;;;5000281;28;20300;-73
2022/09/21 01:30:41;;;;;;;5.00;2.60;;;9.90;99.90;;;;;;4977482;28;20205;-72
2022/09/21 01:33:24;;;;;;;3.33;2.53;;;9.90;99.90;;;;;;4976301;28;20289;-73
2022/09/21 01:35:56;;;;;;;2.87;2.57;;;9.90;99.90;;;;;;4998928;28;20213;-72
2022/09/21 01:38:46;;;;;;;3.67;2.77;;;9.90;99.90;;;;;;4990282;28;20202;-72
2022/09/21 01:41:15;;;;;;;3.50;2.70;;;9.80;99.90;;;;;;4992367;28;20614;-73
2022/09/21 01:43:45;;;;;;;5.27;3.17;;;9.80;99.90;;;;;;4983843;28;20195;-72
2022/09/21 01:46:17;;;;;;;3.40;2.87;;;9.90;99.90;;;;;;4987002;28;20241;-72
2022/09/21 01:48:47;;;;;;;5.23;2.83;;;9.90;99.90;;;;;;4997569;28;20247;-72
2022/09/21 01:51:15;;;;;;;4.27;2.67;;;9.80;99.90;;;;;;4997380;28;20216;-73
2022/09/21 01:53:42;;;;;;;4.17;3.00;;;9.80;99.90;;;;;;5000100;28;20201;-72
2022/09/21 01:56:29;;;;;;;4.00;2.10;;;9.70;99.90;;;;;;4991143;28;20209;-72
2022/09/21 01:59:03;;;;;;;4.70;2.37;;;9.80;99.90;;;;;;4981102;28;20189;-73
2022/09/21 02:01:34;;;;;;;3.10;2.37;;;9.80;99.90;;;;;;4981120;28;20171;-72
2022/09/21 02:04:04;;;;;;;6.00;3.10;;;9.70;99.90;;;;;;4976692;28;20358;-73
2022/09/21 02:06:31;;;;;;;4.63;2.57;;;9.70;99.90;;;;;;4995866;28;20675;-72
2022/09/21 02:08:57;;;;;;;5.73;2.77;;;9.70;99.90;;;;;;4995798;28;20236;-72
2022/09/21 02:11:23;;;;;;;3.53;2.50;;;9.60;99.90;;;;;;4994698;28;20285;-73
2022/09/21 02:13:52;;;;;;;4.37;2.43;;;9.60;99.90;;;;;;4978995;28;20177;-72
2022/09/21 02:16:29;;;;;;;3.30;2.60;;;9.70;99.90;;;;;;4997860;28;20171;-72
2022/09/21 02:19:32;;;;;;;3.73;2.57;;;9.60;99.90;;;;;;4976846;28;20205;-72
2022/09/21 02:22:08;;;;;;;4.47;2.70;;;9.60;99.90;;;;;;4980262;28;20258;-73
2022/09/21 02:24:53;;;;;;;4.10;3.03;;;9.60;99.90;;;;;;4998240;28;20260;-74
2022/09/21 02:27:41;;;;;;;3.70;2.47;;;9.60;99.90;;;;;;4985535;28;20317;-72
2022/09/21 02:30:19;;;;;;;3.83;2.80;;;9.60;99.90;;;;;;4992594;28;20200;-73
2022/09/21 02:32:51;;;;;;;3.27;2.60;;;9.60;99.90;;;;;;4992268;28;20635;-74
2022/09/21 02:35:42;;;;;;;3.70;2.60;;;9.50;99.90;;;;;;4985883;28;20767;-75
2022/09/21 02:38:15;;;;;;;3.90;2.53;;;9.50;99.90;;;;;;4995445;28;20295;-72
2022/09/21 02:40:44;;;;;;;4.87;2.67;;;9.50;99.90;;;;;;4997664;28;20161;-71
2022/09/21 02:43:20;;;;;;;4.47;2.43;;;9.40;99.90;;;;;;4996820;28;20256;-72
2022/09/21 02:45:51;;;;;;;3.93;3.07;;;9.40;99.90;;;;;;4999030;28;20284;-72
2022/09/21 02:48:27;;;;;;;5.27;3.20;;;9.50;99.90;;;;;;4988959;28;20195;-73
2022/09/21 02:50:58;;;;;;;3.37;2.93;;;9.50;99.90;;;;;;4997395;28;20698;-71
2022/09/21 02:53:28;;;;;;;4.20;2.40;;;9.50;99.90;;;;;;5000720;28;20212;-73
2022/09/21 02:55:57;;;;;;;2.87;2.57;;;9.50;99.90;;;;;;4990530;28;20173;-71
2022/09/21 02:58:26;;;;;;;3.17;2.50;;;9.40;99.90;;;;;;4995932;28;20178;-74
2022/09/21 03:00:53;;;;;;;6.50;3.33;;;9.40;99.90;;;;;;4999241;28;20268;-73
2022/09/21 03:03:22;;;;;;;5.47;3.07;;;9.40;99.90;;;;;;4998113;28;20221;-73
2022/09/21 03:05:50;;;;;;;4.97;2.80;;;9.40;99.90;;;;;;4983864;28;20300;-73
2022/09/21 03:08:17;;;;;;;3.13;2.77;;;9.40;99.90;;;;;;5000051;28;20206;-73
2022/09/21 03:10:43;;;;;;;3.30;2.60;;;9.30;99.90;;;;;;5000126;28;20288;-73
2022/09/21 03:13:09;;;;;;;4.00;2.87;;;9.30;99.90;;;;;;4983409;28;20208;-73
2022/09/21 03:15:39;;;;;;;2.50;2.30;;;9.40;99.90;;;;;;5007780;28;20197;-74
2022/09/21 03:18:08;;;;;;;4.10;2.60;;;9.30;99.90;;;;;;4988239;28;20262;-72
2022/09/21 03:20:34;;;;;;;3.87;2.70;;;9.30;99.90;;;;;;4985285;28;20284;-72
2022/09/21 03:23:00;;;;;;;4.63;2.90;;;9.30;99.90;;;;;;4999082;28;20213;-72
2022/09/21 03:25:27;;;;;;;4.07;2.40;;;9.30;99.90;;;;;;5031369;23;20236;-83
2022/09/21 03:27:53;;;;;;;4.07;2.57;;;9.30;99.90;;;;;;5013032;28;20687;-83
2022/09/21 03:30:23;;;;;;;2.93;2.10;;;9.30;99.90;;;;;;5016831;28;20623;-83
2022/09/21 03:32:50;;;;;;;3.87;2.40;;;9.30;99.90;;;;;;5011056;28;20295;-83
2022/09/21 03:35:17;;;;;;;3.57;2.53;;;9.30;99.90;;;;;;5011853;28;20670;-83
2022/09/21 03:37:44;;;;;;;3.20;2.57;;;9.30;99.90;;;;;;5002454;28;20533;-82
2022/09/21 03:40:11;;;;;;;4.27;3.00;;;9.30;99.90;;;;;;5018584;28;20217;-83
2022/09/21 03:42:37;;;;;;;4.63;2.50;;;9.30;99.90;;;;;;5014435;28;20192;-82
2022/09/21 03:45:03;;;;;;;3.33;2.27;;;9.30;99.90;;;;;;5010241;28;20624;-83
2022/09/21 03:47:28;;;;;;;4.73;2.60;;;9.30;99.90;;;;;;5016380;28;20234;-82
2022/09/21 03:49:54;;;;;;;3.20;2.20;;;9.30;99.90;;;;;;5013631;28;20230;-83
2022/09/21 03:52:20;;;;;;;2.60;2.20;;;9.30;99.90;;;;;;5017999;28;20165;-83
2022/09/21 03:54:45;;;;;;;4.53;2.60;;;9.30;99.90;;;;;;5015078;28;20342;-83
2022/09/21 03:57:11;;;;;;;4.17;2.33;;;9.20;99.90;;;;;;5021486;28;20197;-82
2022/09/21 03:59:36;;;;;;;5.70;2.40;;;9.20;99.90;;;;;;5019951;28;20200;-83
2022/09/21 04:02:02;;;;;;;5.23;2.37;;;9.20;99.90;;;;;;5009798;28;20173;-83
2022/09/21 04:04:27;;;;;;;6.30;2.43;;;9.20;99.90;;;;;;5023046;28;20228;-83
2022/09/21 04:06:53;;;;;;;4.10;2.73;;;9.20;99.90;;;;;;5019283;28;20680;-81
2022/09/21 04:09:18;;;;;;;6.23;2.67;;;9.20;99.90;;;;;;5029442;28;20233;-83
2022/09/21 04:11:44;;;;;;;4.20;2.70;;;9.10;99.90;;;;;;5011441;28;20289;-83
2022/09/21 04:14:11;;;;;;;3.97;2.70;;;9.10;99.90;;;;;;5026989;28;20201;-83
2022/09/21 04:16:37;;;;;;;4.57;2.77;;;9.00;99.90;;;;;;5017558;28;20200;-84
2022/09/21 04:19:02;;;;;;;4.57;2.60;;;9.10;99.90;;;;;;5011275;28;20559;-83
2022/09/21 04:21:28;;;;;;;4.70;2.50;;;9.10;99.90;;;;;;5019992;28;20250;-84
2022/09/21 04:23:54;;;;;;;4.63;2.63;;;9.00;99.90;;;;;;5010305;28;20976;-82
2022/09/21 04:26:24;;;;;;;4.80;2.50;;;9.00;99.90;;;;;;5016458;28;20217;-84
2022/09/21 04:28:51;;;;;;;6.20;2.70;;;9.10;99.90;;;;;;5009108;28;20268;-83
2022/09/21 04:31:17;;;;;;;2.63;2.43;;;9.00;99.90;;;;;;5008884;28;20173;-84
2022/09/21 04:33:43;;;;;;;4.57;2.83;;;9.00;99.90;;;;;;5018353;28;20204;-84
2022/09/21 04:36:08;;;;;;;5.40;2.70;;;9.00;99.90;;;;;;5012221;28;20300;-83
2022/09/21 04:38:34;;;;;;;2.70;2.30;;;9.00;99.90;;;;;;5022082;28;20201;-83
2022/09/21 04:40:59;;;;;;;5.00;2.90;;;9.00;99.90;;;;;;5020632;28;20189;-83
2022/09/21 04:43:25;;;;;;;3.23;2.40;;;9.00;99.90;;;;;;5016855;28;20209;-83
2022/09/21 04:45:51;;;;;;;3.43;2.53;;;9.00;99.90;;;;;;5014984;28;20240;-83
2022/09/21 04:48:17;;;;;;;3.80;2.60;;;9.00;99.90;;;;;;5026651;28;20204;-82
2022/09/21 04:50:46;;;;;;;4.93;2.83;;;9.00;99.90;;;;;;5017344;28;20304;-82
2022/09/21 04:53:12;;;;;;;5.13;2.53;;;9.00;99.90;;;;;;5014681;28;20216;-83
2022/09/21 04:55:37;;;;;;;4.87;2.40;;;8.90;99.90;;;;;;5028368;28;20204;-83
2022/09/21 04:58:03;;;;;;;3.00;2.57;;;9.00;99.90;;;;;;5009796;28;20217;-83
2022/09/21 05:00:28;;;;;;;7.10;2.97;;;9.00;99.90;;;;;;5019922;28;20213;-84
2022/09/21 05:02:54;;;;;;;6.10;3.00;;;9.00;99.90;;;;;;5009067;28;20205;-82
2022/09/21 05:05:19;;;;;;;4.73;3.00;;;9.00;99.90;;;;;;5028123;28;20208;-83
2022/09/21 05:07:45;;;;;;;6.20;3.23;;;9.10;99.90;;;;;;5025340;28;20233;-83
2022/09/21 05:10:11;;;;;;;5.67;2.63;;;9.10;99.90;;;;;;5012448;28;20222;-83
2022/09/21 05:12:36;;;;;;;4.50;3.30;;;9.10;99.90;;;;;;5013001;28;20279;-83
2022/09/21 05:15:02;;;;;;;4.43;2.83;;;9.20;99.90;;;;;;5013907;28;20213;-82
2022/09/21 05:17:28;;;;;;;6.43;3.70;;;9.20;99.90;;;;;;5005420;28;20200;-81
2022/09/21 05:19:54;;;;;;;7.40;2.77;;;9.20;99.90;;;;;;5000865;28;20644;-82
2022/09/21 05:22:20;;;;;;;4.57;2.93;;;9.30;99.90;;;;;;5007577;28;20228;-83
2022/09/21 05:24:46;;;;;;;8.03;3.50;;;9.30;99.90;;;;;;5001266;28;20221;-82
2022/09/21 05:27:12;;;;;;;9.07;3.07;;;9.30;99.90;;;;;;5001091;28;20240;-83
2022/09/21 05:29:38;;;;;;;7.27;3.47;;;9.40;99.90;;;;;;5003038;28;20554;-82
2022/09/21 05:32:30;;;;;;;6.43;3.60;;;9.40;99.90;;;;;;5004613;28;20189;-83
2022/09/21 05:35:05;;;;;;;9.03;3.70;;;9.50;99.90;;;;;;5004317;28;20205;-85
2022/09/21 05:37:47;;;;;;;9.90;3.20;;;9.50;99.90;;;;;;5001208;28;20327;-83
2022/09/21 05:40:13;;;;;;;9.40;3.53;;;9.60;99.90;;;;;;5004462;28;20212;-82
2022/09/21 05:42:39;;;;;;;5.43;2.97;;;9.70;99.90;;;;;;5001473;28;20618;-83
2022/09/21 05:45:07;;;;;;;4.83;3.00;;;9.80;99.90;;;;;;4998340;28;20209;-83
2022/09/21 05:47:43;;;;;;;7.23;3.10;;;10.40;99.90;;;;;;5011498;28;20287;-84
2022/09/21 05:50:28;;;;;;;6.43;2.73;;;11.80;99.90;;;;;;5010591;28;20225;-84
2022/09/21 05:53:06;;;;;;;4.72;2.38;;;13.70;99.90;;;;;;4998320;28;20195;-83
2022/09/21 05:55:43;;;;;;;3.60;1.90;;;15.30;99.90;;;;;;5012906;28;20601;-84
2022/09/21 05:58:21;;;;;;;4.65;2.20;;;16.30;99.90;;;;;;5001954;28;20206;-84
2022/09/21 06:00:57;;;;;;;2.67;2.10;;;15.60;99.90;;;;;;4996620;28;20213;-84
2022/09/21 06:03:28;;;;;;;3.78;2.00;;;14.50;99.90;;;;;;5001818;28;20204;-84
2022/09/21 06:05:55;;;;;;;5.97;2.33;;;13.70;99.90;;;;;;5000281;28;20683;-83
2022/09/21 06:08:21;;;;;;;4.78;2.60;;;13.00;99.90;;;;;;5004062;28;20556;-84
2022/09/21 06:10:47;;;;;;;5.50;2.45;;;12.70;99.90;;;;;;4995548;28;20208;-84
2022/09/21 06:13:13;;;;;;;6.50;2.08;;;12.50;99.90;;;;;;5009657;28;20192;-83
2022/09/21 06:15:39;;;;;;;5.35;2.58;;;12.40;99.90;;;;;;5004352;28;20202;-83
2022/09/21 06:18:06;;;;;;;6.13;2.78;;;12.30;99.90;;;;;;4997722;28;20341;-83
2022/09/21 06:20:32;;;;;;;9.35;2.72;;;12.10;99.90;;;;;;4996358;28;20204;-83
2022/09/21 06:23:08;;;;;;;4.90;2.25;;;12.00;99.90;;;;;;4998782;28;20170;-83
2022/09/21 06:25:34;;;;;;;4.97;2.63;;;11.80;99.90;;;;;;5000474;28;20209;-83
2022/09/21 06:28:04;;;;;;;5.13;2.40;;;11.70;99.90;;;;;;5003171;28;20310;-83
2022/09/21 06:30:33;;;;;;;7.00;2.92;;;11.60;99.90;;;;;;4998482;28;20209;-83
2022/09/21 06:33:00;;;;;;;4.78;3.03;;;11.50;99.90;;;;;;5002100;28;20220;-83
2022/09/21 06:35:28;;;;;;;7.28;3.33;;;11.60;99.90;;;;;;4997068;28;20216;-83
2022/09/21 06:38:01;;;;;;;4.35;2.78;;;11.70;99.90;;;;;;4999193;28;20677;-84
2022/09/21 06:40:27;;;;;;;7.32;3.40;;;11.70;99.90;;;;;;5012969;28;20176;-83
2022/09/21 06:43:01;;;;;;;6.17;2.90;;;11.60;99.90;;;;;;5002558;28;20197;-83
2022/09/21 06:45:28;;;;;;;7.57;2.93;;;11.60;99.90;;;;;;4998110;28;20220;-83
2022/09/21 06:47:54;;;;;;;4.77;3.23;;;11.60;99.90;;;;;;5002895;28;20217;-81
2022/09/21 06:50:20;;;;;;;5.93;2.90;;;11.50;99.90;;;;;;5009506;28;20216;-82
2022/09/21 06:52:46;;;;;;;4.43;3.00;;;11.40;99.90;;;;;;5001767;28;20263;-82
2022/09/21 06:55:12;;;;;;;8.87;3.17;;;11.30;99.90;;;;;;5013000;28;22179;-83
2022/09/21 06:57:38;;;;;;;4.83;2.90;;;11.30;99.90;;;;;;5010940;28;20205;-83
2022/09/21 07:00:07;;;;;;;7.40;2.83;;;11.30;99.90;;;;;;5002764;28;20213;-84
2022/09/21 07:02:32;;;;;;;7.40;3.47;;;11.30;99.90;;;;;;4995707;28;20273;-84
2022/09/21 07:04:58;;;;;;;4.27;2.83;;;11.50;99.90;;;;;;5002029;28;20312;-84
2022/09/21 07:07:25;;;;;;;6.20;3.43;;;11.60;99.90;;;;;;5004270;28;20219;-83
2022/09/21 07:09:51;;;;;;;3.70;2.87;;;11.80;99.90;;;;;;4999992;28;20573;-84
2022/09/21 07:12:17;;;;;;;5.30;2.57;;;12.00;99.90;;;;;;5002853;28;20200;-84
2022/09/21 07:14:45;;;;;;;6.67;2.70;;;12.20;99.90;;;;;;5007223;28;20207;-84
2022/09/21 07:17:13;;;;;;;6.40;3.63;;;12.40;99.90;;;;;;5015275;28;20216;-85
2022/09/21 07:19:39;;;;;;;5.28;3.10;;;12.50;99.90;;;;;;5004641;28;20195;-85
2022/09/21 07:22:05;;;;;;;3.17;2.70;;;12.70;99.90;;;;;;5010652;28;20304;-84
2022/09/21 07:24:30;;;;;;;5.90;2.47;;;13.00;99.90;;;;;;5011805;28;20206;-81
2022/09/21 07:26:57;;;;;;;6.20;2.53;;;13.80;99.90;;;;;;5004926;28;20308;-84
2022/09/21 07:29:22;;;;;;;5.22;2.67;;;14.40;99.90;;;;;;5012721;28;20229;-84
2022/09/21 07:31:48;;;;;;;5.38;3.20;;;14.40;99.90;;;;;;5013734;28;20170;-83
2022/09/21 07:34:14;;;;;;;6.35;3.30;;;14.20;99.90;;;;;;5016799;28;20165;-81
2022/09/21 07:36:40;;;;;;;3.90;3.13;;;14.10;99.90;;;;;;5017652;28;20217;-84
2022/09/21 07:39:08;;;;;;;4.38;3.13;;;14.20;99.90;;;;;;5012578;28;20223;-84
2022/09/21 07:41:34;;;;;;;5.43;3.10;;;14.30;99.90;;;;;;5008173;28;20198;-83
2022/09/21 07:44:00;;;;;;;7.22;3.35;;;14.50;99.90;;;;;;5002782;28;20181;-83
2022/09/21 07:46:25;;;;;;;5.43;3.25;;;14.90;99.90;;;;;;5003908;28;20200;-83
2022/09/21 07:48:55;;;;;;;3.33;2.65;;;15.90;99.90;;;;;;5010510;28;20205;-82
2022/09/21 07:51:23;;;;;;;3.92;3.05;;;17.20;99.90;;;;;;5003614;28;20228;-83
2022/09/21 07:53:55;;;;;;;4.13;3.10;;;18.90;99.90;;;;;;5007966;28;20636;-85
2022/09/21 07:56:21;;;;;;;4.90;3.28;;;19.00;99.90;;;;;;5009262;28;20204;-84
2022/09/21 07:59:05;;;;;;;4.45;2.95;;;18.60;99.90;;;;;;5009616;28;20181;-84
2022/09/21 08:01:34;;;;;;;5.20;3.08;;;18.00;99.90;;;;;;5003088;28;20162;-82
2022/09/21 08:04:00;;;;;;;3.85;2.78;;;17.30;99.90;;;;;;5005368;28;20209;-83
2022/09/21 08:06:29;;;;;;;4.40;3.30;;;17.00;99.90;;;;;;5016339;28;20209;-82
2022/09/21 08:08:54;;;;;;;7.93;3.00;;;16.80;99.90;;;;;;5005786;28;20259;-82
2022/09/21 08:11:21;;;;;;;7.05;3.15;;;16.90;99.90;;;;;;5003960;28;20706;-81
2022/09/21 08:13:51;;;;;;;3.80;2.65;;;16.90;99.90;;;;;;5006405;28;20249;-81
2022/09/21 08:16:16;;;;;;;4.85;3.65;;;17.00;99.90;;;;;;5012067;28;20738;-83
2022/09/21 08:18:42;;;;;;;6.10;3.25;;;16.90;99.90;;;;;;5006028;28;20292;-81
2022/09/21 08:21:09;;;;;;;8.95;3.40;;;16.80;99.90;;;;;;5013867;28;20293;-81
2022/09/21 08:23:39;;;;;;;6.60;3.45;;;16.60;99.90;;;;;;5012721;28;20211;-83
2022/09/21 08:26:06;;;;;;;7.07;3.67;;;16.20;99.90;;;;;;5012000;28;20209;-82
2022/09/21 08:28:32;;;;;;;7.70;3.67;;;15.80;99.90;;;;;;5004226;28;20180;-84
2022/09/21 08:31:07;;;;;;;5.28;3.60;;;15.50;99.90;;;;;;5010906;28;20978;-79
2022/09/21 08:33:33;;;;;;;9.30;4.10;;;15.30;99.90;;;;;;5006227;28;20197;-80
2022/09/21 08:36:00;;;;;;;6.10;4.07;;;15.30;99.90;;;;;;4999657;28;20230;-81
2022/09/21 08:38:31;;;;;;;9.30;3.17;;;15.30;99.90;;;;;;5007589;28;20200;-84
2022/09/21 08:40:57;;;;;;;5.28;3.38;;;15.40;99.90;;;;;;5004738;28;20193;-81
2022/09/21 08:43:40;;;;;;;7.57;4.00;;;15.10;99.90;;;;;;5014232;28;20264;-82
2022/09/21 08:46:12;;;;;;;7.30;3.50;;;15.20;99.90;;;;;;5007896;28;20218;-82
2022/09/21 08:48:47;;;;;;;4.47;3.30;;;15.20;99.90;;;;;;5015089;28;20206;-82
2022/09/21 08:51:21;;;;;;;9.77;4.03;;;15.30;99.90;;;;;;5002424;28;20221;-82
2022/09/21 08:53:49;;;;;;;4.63;3.50;;;15.30;99.90;;;;;;4999381;28;20316;-82
2022/09/21 08:56:15;;;;;;;5.55;3.63;;;15.60;99.90;;;;;;5012607;28;20209;-83
2022/09/21 08:58:42;;;;;;;5.60;3.40;;;15.70;99.90;;;;;;5006226;28;20178;-80
2022/09/21 09:01:49;;;;;;;6.05;3.38;;;15.90;99.90;;;;;;5008570;28;20300;-82
2022/09/21 09:04:29;;;;;;;5.68;3.58;;;15.80;99.90;;;;;;4976479;28;20299;-83
2022/09/21 09:07:20;;;;;;;6.57;4.53;;;16.20;99.90;;;;;;5009035;28;20209;-82
2022/09/21 09:10:04;;;;;;;11.63;5.75;;;16.50;99.90;;;;;;5002161;28;20214;-81
2022/09/21 09:12:46;;;;;;;4.07;3.05;;;16.60;99.90;;;;;;5009603;28;20679;-82
2022/09/21 09:15:36;;;;;;;8.63;4.10;;;16.80;99.90;;;;;;5009810;28;20216;-81
2022/09/21 09:18:23;;;;;;;7.35;3.40;;;17.10;99.90;;;;;;5008183;28;20498;-82
2022/09/21 09:21:13;;;;;;;5.78;4.55;;;17.70;99.90;;;;;;5009741;28;20246;-83
2022/09/21 09:23:42;;;;;;;6.80;4.60;;;18.10;99.90;;;;;;5004211;28;20210;-82
2022/09/21 09:26:32;;;;;;;4.57;3.20;;;17.90;99.90;;;;;;5050517;23;20227;-71
2022/09/21 09:29:03;;;;;;;8.43;4.18;;;17.90;99.90;;;;;;5032280;28;20192;-72
2022/09/21 09:31:33;;;;;;;5.65;3.38;;;17.70;99.90;;;;;;5052196;28;20537;-71
2022/09/21 09:34:11;;;;;;;7.10;4.28;;;17.90;99.90;;;;;;5045424;28;20204;-72
2022/09/21 09:36:42;;;;;;;7.47;4.25;;;18.10;99.90;;;;;;5051441;28;20207;-71
2022/09/21 09:39:15;;;;;;;6.22;4.40;;;18.30;99.90;;;;;;5060349;28;20208;-72
2022/09/21 09:42:06;;;;;;;3.80;2.47;;;18.60;99.90;;;;;;5061881;28;20229;-72
2022/09/21 09:44:43;;;;;;;5.20;3.33;;;18.60;99.90;;;;;;5053077;28;20297;-72
2022/09/21 09:47:21;;;;;;;3.85;3.10;;;18.90;99.90;;;;;;5059464;28;20591;-72
2022/09/21 09:50:05;;;;;;;5.35;2.90;;;18.70;99.90;;;;;;5040717;28;20203;-72
2022/09/21 09:52:31;;;;;;;4.30;2.83;;;18.80;99.90;;;;;;5044921;28;20168;-73
2022/09/21 09:55:11;;;;;;;4.63;3.33;;;18.90;99.90;;;;;;5052446;28;20215;-72
2022/09/21 09:57:37;;;;;;;6.00;4.07;;;18.80;99.90;;;;;;5041372;28;20758;-71
2022/09/21 10:00:11;;;;;;;5.95;2.55;;;18.90;99.90;;;;;;5059136;28;20226;-72
2022/09/21 10:02:52;;;;;;;3.03;2.10;;;18.50;99.90;;;;;;5049190;28;20207;-72
2022/09/21 10:05:32;;;;;;;2.97;2.13;;;18.60;99.90;;;;;;5047620;28;20289;-72
2022/09/21 10:07:58;;;;;;;4.63;2.03;;;18.90;99.90;;;;;;5055652;28;20244;-73
2022/09/21 10:10:39;;;;;;;3.25;1.90;;;18.60;99.90;;;;;;5052812;28;20671;-72
2022/09/21 10:13:27;;;;;;;4.78;2.03;;;18.50;99.90;;;;;;5055664;28;20223;-72
2022/09/21 10:16:03;;;;;;;2.10;1.60;;;18.20;99.90;;;;;;5060227;28;20218;-71
2022/09/21 10:18:39;;;;;;;2.22;1.40;;;18.10;99.90;;;;;;5041174;28;20260;-73
2022/09/21 10:21:08;;;;;;;1.95;1.20;;;17.80;99.90;;;;;;5056235;28;20528;-72
2022/09/21 10:23:35;;;;;;;3.38;1.48;;;17.80;99.90;;;;;;5057049;28;20544;-72
2022/09/21 10:26:06;;;;;;;2.50;1.30;;;17.70;99.90;;;;;;5058489;28;20298;-72
2022/09/21 10:28:32;;;;;;;4.32;1.60;;;17.80;99.90;;;;;;5051361;28;20206;-72
2022/09/21 10:31:17;;;;;;;1.45;1.00;;;17.70;99.90;;;;;;5057470;28;20651;-72
2022/09/21 10:34:05;;;;;;;2.20;1.60;;;17.60;99.90;;;;;;5045074;28;20208;-72
2022/09/21 10:36:34;;;;;;;1.92;1.00;;;17.90;99.90;;;;;;5054351;28;20204;-72
2022/09/21 10:39:21;;;;;;;2.05;0.90;;;18.00;99.90;;;;;;5054307;28;20207;-72
2022/09/21 10:41:55;;;;;;;1.48;0.80;;;18.40;99.90;;;;;;5056143;28;20211;-72
2022/09/21 10:44:24;;;;;;;2.83;1.88;;;18.90;99.90;;;;;;5053145;28;20348;-72
2022/09/21 10:46:50;;;;;;;1.63;1.00;;;19.30;99.90;;;;;;5039899;28;20202;-72
2022/09/21 10:49:26;;;;;;;1.05;0.65;;;19.40;99.90;;;;;;5057751;28;20754;-71
2022/09/21 10:51:55;;;;;;;0.93;0.80;;;19.30;99.90;;;;;;5053387;28;20294;-72
2022/09/21 10:54:26;;;;;;;1.27;1.00;;;19.00;99.90;;;;;;5054403;28;20195;-72
2022/09/21 10:56:58;;;;;;;1.10;0.70;;;18.70;99.90;;;;;;5056679;28;20277;-72
2022/09/21 10:59:36;;;;;;;0.88;0.70;;;18.30;99.90;;;;;;5051887;28;20284;-73
2022/09/21 11:02:22;;;;;;;1.10;0.90;;;18.10;99.90;;;;;;5050797;28;20531;-72
2022/09/21 11:04:50;;;;;;;1.88;1.33;;;18.00;99.90;;;;;;5056347;28;20184;-72
2022/09/21 11:07:40;;;;;;;2.53;0.80;;;18.20;99.90;;;;;;5039094;28;20187;-72
2022/09/21 11:10:19;;;;;;;1.70;1.10;;;18.60;99.90;;;;;;5034007;28;20295;-72
2022/09/21 11:12:51;;;;;;;1.50;1.08;;;18.90;99.90;;;;;;5047901;28;20204;-71
2022/09/21 11:15:29;;;;;;;2.13;0.65;;;19.20;99.90;;;;;;5043336;28;20203;-72
2022/09/21 11:18:19;;;;;;;1.08;0.75;;;19.30;99.90;;;;;;5052407;28;20211;-72
2022/09/21 11:21:02;;;;;;;0.80;0.80;;;19.60;99.90;;;;;;5057191;28;20195;-72
2022/09/21 11:23:51;;;;;;;1.60;0.90;;;19.90;99.90;;;;;;5054762;28;20256;-72
2022/09/21 11:26:34;;;;;;;1.60;1.02;;;19.80;99.90;;;;;;5045431;28;20289;-71
2022/09/21 11:29:25;;;;;;;1.38;0.85;;;19.40;99.90;;;;;;5055100;28;20179;-72
2022/09/21 11:32:28;;;;;;;1.40;0.80;;;19.10;99.90;;;;;;5060148;28;20176;-72
2022/09/21 11:35:15;;;;;;;1.00;0.80;;;18.80;99.90;;;;;;5013927;28;20235;-71
2022/09/21 11:38:03;;;;;;;1.30;0.68;;;18.70;99.90;;;;;;5056541;28;20176;-71
2022/09/21 11:40:56;;;;;;;0.65;0.60;;;18.50;99.90;;;;;;5058881;28;20303;-71
2022/09/21 11:43:48;;;;;;;0.52;0.47;;;18.70;99.90;;;;;;5056446;28;20212;-71
2022/09/21 11:46:53;;;;;;;1.42;1.00;;;18.90;99.90;;;;;;5041805;28;20305;-72
2022/09/21 11:49:47;;;;;;;0.88;0.73;;;18.80;99.90;;;;;;5059536;28;20207;-72
2022/09/21 11:52:44;;;;;;;1.55;1.00;;;18.50;99.90;;;;;;5035920;28;20253;-72
2022/09/21 11:55:43;;;;;;;1.80;0.93;;;18.30;99.90;;;;;;5056207;28;20287;-72
2022/09/21 11:58:36;;;;;;;1.50;1.00;;;18.20;99.90;;;;;;5050767;28;20661;-75
2022/09/21 12:01:17;;;;;;;3.17;1.17;;;18.20;99.90;;;;;;5053169;28;20211;-74
2022/09/21 12:04:02;;;;;;;0.93;0.90;;;18.30;99.90;;;;;;5055884;28;20228;-74
2022/09/21 12:06:42;;;;;;;1.02;0.90;;;18.20;99.90;;;;;;5063239;28;20210;-73
2022/09/21 12:09:38;;;;;;;1.00;0.77;;;18.00;99.90;;;;;;5060362;28;20203;-72
2022/09/21 12:12:10;;;;;;;1.23;0.77;;;18.30;99.90;;;;;;5056731;28;20216;-73
2022/09/21 12:14:41;;;;;;;0.90;0.75;;;18.40;99.90;;;;;;5062767;28;20203;-72
2022/09/21 12:17:47;;;;;;;1.20;0.70;;;18.60;99.90;;;;;;5057906;28;20692;-72
2022/09/21 12:20:30;;;;;;;0.95;0.73;;;18.80;99.90;;;;;;5002624;28;20775;-72
2022/09/21 12:23:01;;;;;;;0.88;0.80;;;18.70;99.90;;;;;;5008613;28;20173;-72
2022/09/21 12:25:34;;;;;;;2.47;0.93;;;18.50;99.90;;;;;;5040913;28;20180;-72
2022/09/21 12:28:17;;;;;;;1.65;1.02;;;18.40;99.90;;;;;;5051904;28;20219;-73
2022/09/21 12:30:48;;;;;;;0.80;0.80;;;18.00;99.90;;;;;;5059633;28;20301;-71
2022/09/21 12:33:21;;;;;;;1.27;0.82;;;17.60;99.90;;;;;;5053939;28;20766;-71
2022/09/21 12:36:04;;;;;;;1.10;0.85;;;17.60;99.90;;;;;;5055818;28;20616;-71
2022/09/21 12:38:39;;;;;;;1.98;0.70;;;17.60;99.90;;;;;;5046284;28;20213;-72
2022/09/21 12:41:21;;;;;;;2.35;1.20;;;17.60;99.90;;;;;;5052227;28;20211;-72
2022/09/21 12:43:59;;;;;;;1.08;0.98;;;17.80;99.90;;;;;;5061594;28;20175;-71
2022/09/21 12:46:49;;;;;;;2.08;0.88;;;17.90;99.90;;;;;;5065317;28;20232;-71
2022/09/21 12:49:20;;;;;;;2.65;0.85;;;18.20;99.90;;;;;;5064749;28;20203;-71
2022/09/21 12:52:02;;;;;;;3.55;1.30;;;18.30;99.90;;;;;;5050753;28;20199;-73
2022/09/21 12:54:49;;;;;;;1.98;1.00;;;18.40;99.90;;;;;;5056153;28;20195;-70
2022/09/21 12:57:42;;;;;;;1.38;1.02;;;18.20;99.90;;;;;;5061079;28;20198;-70
2022/09/21 13:00:12;;;;;;;2.67;0.95;;;18.10;99.90;;;;;;5056540;28;20219;-72
2022/09/21 13:02:47;;;;;;;1.13;1.02;;;18.00;99.90;;;;;;5052973;28;20204;-71
2022/09/21 13:05:45;;;;;;;1.92;1.10;;;17.80;99.90;;;;;;5061478;28;20214;-70
2022/09/21 13:08:14;;;;;;;1.33;1.00;;;17.80;99.90;;;;;;5057263;28;20724;-71
2022/09/21 13:10:46;;;;;;;1.00;0.82;;;17.80;99.90;;;;;;5053597;28;20280;-71
2022/09/21 13:13:32;;;;;;;2.15;1.02;;;17.70;99.90;;;;;;5058350;28;20203;-71
2022/09/21 13:16:00;;;;;;;1.70;1.00;;;17.20;99.90;;;;;;5062466;28;20215;-71
2022/09/21 13:18:31;;;;;;;1.35;1.15;;;17.10;99.90;;;;;;5054917;28;20199;-72